Time;durP1;ratioP1;P1;durP2;ratioP2;P2;SDS_P1;SDS_P2;PMS_P1;PMS_P2;Temp;Humidity;BMP_temperature;BMP_pressure;BME280_temperature;BME280_humidity;BME280_pressure;Samples;Min_cycle;Max_cycle;Signal;HPM_P1;HPM_P2
2022/10/10 00:01:28;;;;;;;6.57;4.13;;;10.30;99.90;;;;;;5023264;28;20045;-69
2022/10/10 00:03:56;;;;;;;7.53;4.50;;;10.20;99.90;;;;;;4998445;28;20046;-68
2022/10/10 00:06:24;;;;;;;8.02;4.50;;;10.20;99.90;;;;;;5002244;28;20068;-68
2022/10/10 00:08:58;;;;;;;6.90;4.38;;;10.20;99.90;;;;;;5018566;28;20046;-69
2022/10/10 00:11:26;;;;;;;6.22;4.28;;;10.20;99.90;;;;;;5010697;28;20061;-69
2022/10/10 00:13:53;;;;;;;6.38;4.35;;;10.20;99.90;;;;;;5017131;28;20117;-69
2022/10/10 00:16:20;;;;;;;9.07;4.60;;;10.20;99.90;;;;;;5014640;28;20120;-68
2022/10/10 00:18:48;;;;;;;5.07;4.30;;;10.10;99.90;;;;;;5009199;28;20046;-69
2022/10/10 00:21:15;;;;;;;7.40;4.47;;;10.10;99.90;;;;;;5010257;28;20072;-69
2022/10/10 00:23:42;;;;;;;9.00;4.80;;;10.10;99.90;;;;;;5014233;28;20049;-68
2022/10/10 00:26:10;;;;;;;8.80;4.47;;;10.10;99.90;;;;;;5025117;28;20049;-69
2022/10/10 00:28:44;;;;;;;8.18;4.72;;;10.10;99.90;;;;;;5022759;28;20534;-69
2022/10/10 00:31:12;;;;;;;6.72;4.07;;;10.10;99.90;;;;;;5023711;28;20042;-69
2022/10/10 00:33:39;;;;;;;7.95;4.95;;;10.10;99.90;;;;;;5026355;28;20053;-69
2022/10/10 00:36:07;;;;;;;8.20;5.00;;;10.10;99.90;;;;;;5011211;28;20054;-69
2022/10/10 00:38:34;;;;;;;9.02;5.05;;;10.10;99.90;;;;;;5020811;28;20471;-69
2022/10/10 00:41:03;;;;;;;8.80;4.80;;;10.10;99.90;;;;;;5030236;28;20047;-69
2022/10/10 00:43:30;;;;;;;7.10;4.35;;;10.10;99.90;;;;;;5030860;28;20073;-69
2022/10/10 00:45:58;;;;;;;7.75;4.72;;;10.20;99.90;;;;;;5031503;28;20089;-68
2022/10/10 00:48:34;;;;;;;11.20;5.55;;;10.20;99.90;;;;;;5021170;28;20045;-69
2022/10/10 00:51:06;;;;;;;7.65;4.55;;;10.30;99.90;;;;;;5027899;28;20041;-69
2022/10/10 00:53:42;;;;;;;6.35;4.60;;;10.30;99.90;;;;;;5030989;28;20132;-69
2022/10/10 00:56:11;;;;;;;7.85;5.00;;;10.30;99.90;;;;;;5028616;28;20050;-68
2022/10/10 00:58:41;;;;;;;7.75;4.65;;;10.30;99.90;;;;;;5029627;28;20049;-69
2022/10/10 01:01:09;;;;;;;7.30;4.55;;;10.30;99.90;;;;;;5015384;28;20155;-69
2022/10/10 01:03:36;;;;;;;8.63;4.55;;;10.30;99.90;;;;;;5029293;28;20056;-69
2022/10/10 01:06:05;;;;;;;9.68;4.75;;;10.30;99.90;;;;;;5028110;28;20128;-69
2022/10/10 01:08:32;;;;;;;8.65;4.68;;;10.30;99.90;;;;;;5021061;28;20038;-68
2022/10/10 01:11:16;;;;;;;7.15;4.50;;;10.30;99.90;;;;;;5013912;28;20052;-68
2022/10/10 01:13:52;;;;;;;7.32;4.70;;;10.30;99.90;;;;;;5032543;28;20056;-68
2022/10/10 01:16:28;;;;;;;5.53;4.57;;;10.30;99.90;;;;;;5017744;28;20500;-69
2022/10/10 01:19:06;;;;;;;6.72;4.50;;;10.30;99.90;;;;;;5029756;28;20507;-68
2022/10/10 01:21:45;;;;;;;7.15;4.55;;;10.30;99.90;;;;;;5028580;28;20503;-69
2022/10/10 01:24:43;;;;;;;8.82;4.28;;;10.30;99.90;;;;;;5030622;28;20293;-69
2022/10/10 01:27:23;;;;;;;8.18;4.70;;;10.30;99.90;;;;;;5021162;28;20047;-68
2022/10/10 01:30:10;;;;;;;6.20;4.28;;;10.20;99.90;;;;;;5016613;28;20057;-69
2022/10/10 01:32:50;;;;;;;7.32;4.35;;;10.20;99.90;;;;;;5022156;28;20068;-69
2022/10/10 01:35:36;;;;;;;7.30;4.35;;;10.10;99.90;;;;;;5015108;28;20046;-69
2022/10/10 01:38:19;;;;;;;6.40;4.13;;;10.10;99.90;;;;;;5010760;28;20037;-69
2022/10/10 01:41:09;;;;;;;5.63;4.30;;;10.00;99.90;;;;;;5009390;28;20461;-69
2022/10/10 01:43:37;;;;;;;7.00;4.65;;;10.00;99.90;;;;;;5024701;28;20068;-68
2022/10/10 01:46:10;;;;;;;7.25;4.43;;;9.90;99.90;;;;;;5029270;28;20043;-69
2022/10/10 01:48:38;;;;;;;7.45;4.05;;;9.90;99.90;;;;;;5020742;28;20037;-69
2022/10/10 01:51:08;;;;;;;8.10;4.65;;;9.90;99.90;;;;;;5025080;28;20046;-69
2022/10/10 01:53:41;;;;;;;6.82;4.43;;;9.80;99.90;;;;;;5054098;28;20041;-69
2022/10/10 01:56:27;;;;;;;6.55;4.80;;;9.80;99.90;;;;;;5030317;28;20550;-68
2022/10/10 01:59:22;;;;;;;6.65;4.28;;;9.80;99.90;;;;;;5024272;28;20049;-69
2022/10/10 02:02:11;;;;;;;10.70;4.60;;;9.70;99.90;;;;;;5024492;28;20041;-69
2022/10/10 02:04:51;;;;;;;5.82;4.60;;;9.70;99.90;;;;;;5029100;28;20526;-68
2022/10/10 02:07:27;;;;;;;7.22;4.97;;;9.60;99.90;;;;;;5029005;28;20053;-69
2022/10/10 02:09:56;;;;;;;6.50;4.30;;;9.60;99.90;;;;;;5021898;28;20037;-69
2022/10/10 02:12:25;;;;;;;9.23;4.40;;;9.60;99.90;;;;;;5024926;28;20625;-68
2022/10/10 02:14:57;;;;;;;6.55;4.20;;;9.50;99.90;;;;;;5030373;28;20045;-68
2022/10/10 02:17:25;;;;;;;10.13;4.60;;;9.50;99.90;;;;;;5011044;28;20374;-69
2022/10/10 02:19:57;;;;;;;6.65;4.40;;;9.50;99.90;;;;;;5030285;28;20037;-69
2022/10/10 02:22:25;;;;;;;;;;;9.40;99.90;;;;;;5029109;28;20049;-69
2022/10/10 02:24:54;;;;;;;7.78;4.53;;;9.40;99.90;;;;;;5027543;28;19931;-69
2022/10/10 02:27:30;;;;;;;9.90;4.57;;;9.50;99.90;;;;;;5028548;28;20133;-69
2022/10/10 02:29:59;;;;;;;7.25;4.68;;;9.40;99.90;;;;;;5027478;28;20056;-68
2022/10/10 02:32:48;;;;;;;9.98;5.10;;;9.40;99.90;;;;;;5028246;28;20101;-68
2022/10/10 02:35:24;;;;;;;9.05;4.72;;;9.40;99.90;;;;;;5021056;28;20049;-68
2022/10/10 02:37:53;;;;;;;6.18;4.22;;;9.40;99.90;;;;;;5042160;28;20042;-68
2022/10/10 02:40:24;;;;;;;5.80;4.28;;;9.40;99.90;;;;;;5010131;28;20128;-69
2022/10/10 02:42:51;;;;;;;7.65;4.60;;;9.40;99.90;;;;;;5017571;28;20048;-69
2022/10/10 02:45:20;;;;;;;10.60;4.43;;;9.40;99.90;;;;;;5028441;28;20045;-69
2022/10/10 02:47:48;;;;;;;8.23;5.00;;;9.40;99.90;;;;;;5019266;28;20488;-69
2022/10/10 02:50:15;;;;;;;6.40;4.45;;;9.40;99.90;;;;;;5028347;28;20041;-68
2022/10/10 02:52:42;;;;;;;7.57;4.18;;;9.40;99.90;;;;;;5028429;28;20073;-68
2022/10/10 02:55:10;;;;;;;6.50;4.55;;;9.40;99.90;;;;;;5026773;28;20050;-68
2022/10/10 02:57:37;;;;;;;6.75;4.97;;;9.40;99.90;;;;;;5028437;28;20436;-68
2022/10/10 03:00:05;;;;;;;9.85;5.25;;;9.40;99.90;;;;;;5008930;28;20045;-68
2022/10/10 03:02:36;;;;;;;10.60;4.95;;;9.40;99.90;;;;;;5022104;28;20546;-69
2022/10/10 03:05:03;;;;;;;9.65;5.28;;;9.40;99.90;;;;;;5027843;28;20041;-68
2022/10/10 03:07:32;;;;;;;9.15;4.40;;;9.40;99.90;;;;;;5027763;28;20053;-68
2022/10/10 03:09:59;;;;;;;7.57;4.10;;;9.40;99.90;;;;;;5009048;28;20056;-69
2022/10/10 03:12:26;;;;;;;7.35;4.22;;;9.40;99.90;;;;;;5009782;28;20061;-69
2022/10/10 03:14:54;;;;;;;7.50;4.38;;;9.30;99.90;;;;;;5029172;28;20046;-68
2022/10/10 03:17:21;;;;;;;5.50;3.95;;;9.30;99.90;;;;;;5024750;28;20053;-68
2022/10/10 03:19:48;;;;;;;5.97;4.05;;;9.40;99.90;;;;;;5029380;28;20065;-68
2022/10/10 03:22:16;;;;;;;8.75;4.53;;;9.30;99.90;;;;;;5027510;28;20128;-68
2022/10/10 03:24:43;;;;;;;6.95;4.63;;;9.30;99.90;;;;;;5013400;28;20052;-68
2022/10/10 03:27:10;;;;;;;6.53;4.60;;;9.30;99.90;;;;;;5029716;28;20491;-68
2022/10/10 03:29:37;;;;;;;8.63;4.40;;;9.30;99.90;;;;;;5007286;28;20061;-69
2022/10/10 03:32:05;;;;;;;8.90;4.38;;;9.30;99.90;;;;;;5027898;28;20381;-68
2022/10/10 03:34:36;;;;;;;;;;;9.40;99.90;;;;;;5028782;28;20439;-68
2022/10/10 03:37:04;;;;;;;8.82;4.85;;;9.50;99.90;;;;;;5012029;28;19939;-68
2022/10/10 03:39:31;;;;;;;9.15;4.43;;;9.50;99.90;;;;;;5027822;28;20064;-68
2022/10/10 03:41:58;;;;;;;8.00;4.55;;;9.50;99.90;;;;;;5016998;28;20041;-69
2022/10/10 03:44:26;;;;;;;8.00;4.80;;;9.50;99.90;;;;;;5030343;28;20041;-68
2022/10/10 03:46:53;;;;;;;6.25;3.67;;;9.60;99.90;;;;;;5032044;28;20416;-68
2022/10/10 03:49:20;;;;;;;10.35;4.55;;;9.60;99.90;;;;;;5020680;28;20077;-69
2022/10/10 03:51:48;;;;;;;6.65;4.18;;;9.70;99.90;;;;;;5030579;28;20479;-68
2022/10/10 03:54:15;;;;;;;10.32;4.82;;;9.70;99.90;;;;;;5001270;28;20492;-68
2022/10/10 03:56:42;;;;;;;8.93;4.32;;;9.80;99.90;;;;;;5030816;28;20540;-68
2022/10/10 03:59:10;;;;;;;9.80;4.68;;;9.80;99.90;;;;;;5021787;28;20515;-68
2022/10/10 04:01:37;;;;;;;10.48;4.40;;;9.90;99.90;;;;;;5013375;28;20052;-68
2022/10/10 04:04:05;;;;;;;7.65;4.60;;;9.90;99.90;;;;;;5025955;28;20088;-69
2022/10/10 04:06:32;;;;;;;9.52;4.60;;;10.00;99.90;;;;;;5031972;28;20499;-68
2022/10/10 04:08:59;;;;;;;14.02;4.80;;;10.00;99.90;;;;;;5012027;28;20361;-68
2022/10/10 04:11:27;;;;;;;7.20;4.32;;;10.00;99.90;;;;;;5031303;28;20064;-68
2022/10/10 04:13:54;;;;;;;5.68;4.05;;;10.00;99.90;;;;;;5031369;28;20057;-68
2022/10/10 04:16:21;;;;;;;5.20;4.10;;;10.00;99.90;;;;;;5029672;28;20470;-68
2022/10/10 04:18:48;;;;;;;8.25;4.13;;;10.00;99.90;;;;;;5018921;28;20058;-68
2022/10/10 04:21:16;;;;;;;9.98;4.32;;;10.00;99.90;;;;;;5030823;28;20064;-68
2022/10/10 04:23:43;;;;;;;9.43;4.75;;;10.00;99.90;;;;;;5032331;28;20046;-68
2022/10/10 04:26:10;;;;;;;8.73;4.43;;;9.90;99.90;;;;;;5008128;28;20041;-69
2022/10/10 04:28:37;;;;;;;7.38;4.07;;;9.90;99.90;;;;;;5031225;28;20046;-68
2022/10/10 04:31:05;;;;;;;13.45;4.82;;;9.90;99.90;;;;;;5019599;28;20052;-68
2022/10/10 04:33:32;;;;;;;11.52;4.50;;;9.90;99.90;;;;;;5030064;28;20041;-68
2022/10/10 04:35:59;;;;;;;10.60;4.90;;;9.90;99.90;;;;;;5021800;28;20053;-68
2022/10/10 04:38:28;;;;;;;11.52;4.38;;;9.90;99.90;;;;;;5026718;28;20484;-68
2022/10/10 04:40:55;;;;;;;7.70;4.53;;;9.90;99.90;;;;;;5027915;28;20038;-68
2022/10/10 04:43:23;;;;;;;6.15;4.38;;;9.90;99.90;;;;;;4994087;28;20060;-68
2022/10/10 04:45:50;;;;;;;9.50;4.80;;;9.80;99.90;;;;;;5028773;28;20036;-70
2022/10/10 04:48:17;;;;;;;7.78;4.75;;;9.80;99.90;;;;;;5029624;28;20045;-68
2022/10/10 04:50:50;;;;;;;8.25;4.82;;;9.80;99.90;;;;;;5018565;28;20061;-67
2022/10/10 04:53:18;;;;;;;7.88;4.50;;;9.80;99.90;;;;;;5054806;28;20046;-68
2022/10/10 04:55:45;;;;;;;10.35;4.80;;;9.70;99.90;;;;;;5009985;28;20037;-69
2022/10/10 04:58:13;;;;;;;6.55;4.13;;;9.70;99.90;;;;;;5021840;28;20132;-68
2022/10/10 05:00:40;;;;;;;9.65;4.90;;;9.70;99.90;;;;;;5011273;28;20077;-68
2022/10/10 05:03:10;;;;;;;8.05;4.28;;;9.70;99.90;;;;;;5015058;28;20034;-69
2022/10/10 05:05:38;;;;;;;8.95;4.57;;;9.60;99.90;;;;;;5011780;28;20522;-69
2022/10/10 05:08:06;;;;;;;8.23;5.00;;;9.60;99.90;;;;;;5042988;28;20067;-69
2022/10/10 05:10:40;;;;;;;8.68;5.22;;;9.60;99.90;;;;;;5015658;28;20510;-69
2022/10/10 05:13:11;;;;;;;10.32;4.68;;;9.60;99.90;;;;;;5025431;28;20045;-69
2022/10/10 05:15:39;;;;;;;6.97;4.80;;;9.60;99.90;;;;;;5026435;28;20038;-69
2022/10/10 05:18:06;;;;;;;8.90;5.10;;;9.60;99.90;;;;;;5028831;28;20123;-69
2022/10/10 05:20:35;;;;;;;9.85;5.13;;;9.60;99.90;;;;;;5023589;28;20038;-69
2022/10/10 05:23:03;;;;;;;9.20;5.20;;;9.60;99.90;;;;;;5018415;28;20046;-69
2022/10/10 05:25:30;;;;;;;8.15;4.75;;;9.60;99.90;;;;;;5027103;28;20034;-69
2022/10/10 05:27:57;;;;;;;8.68;4.97;;;9.60;99.90;;;;;;5015203;28;20667;-69
2022/10/10 05:30:25;;;;;;;6.53;4.78;;;9.60;99.90;;;;;;5029634;28;20057;-69
2022/10/10 05:32:52;;;;;;;8.85;5.07;;;9.60;99.90;;;;;;5018586;28;20392;-69
2022/10/10 05:35:20;;;;;;;11.93;5.32;;;9.60;99.90;;;;;;5015620;28;20054;-68
2022/10/10 05:37:47;;;;;;;8.45;4.47;;;9.70;99.90;;;;;;5013537;28;20054;-69
2022/10/10 05:40:14;;;;;;;10.13;5.32;;;9.70;99.90;;;;;;5010681;28;20049;-69
2022/10/10 05:42:42;;;;;;;13.68;5.07;;;9.70;99.90;;;;;;5015981;28;20857;-68
2022/10/10 05:45:09;;;;;;;7.00;4.60;;;9.80;99.90;;;;;;5023263;28;20044;-68
2022/10/10 05:47:37;;;;;;;9.93;5.60;;;9.80;99.90;;;;;;5030414;28;20435;-68
2022/10/10 05:50:05;;;;;;;8.43;5.40;;;9.90;99.90;;;;;;5022978;28;20471;-68
2022/10/10 05:52:34;;;;;;;8.55;5.03;;;9.90;99.90;;;;;;5026943;28;20798;-68
2022/10/10 05:55:01;;;;;;;10.18;4.78;;;9.90;99.90;;;;;;5032104;28;20137;-68
2022/10/10 05:57:28;;;;;;;8.60;4.88;;;10.00;99.90;;;;;;5015626;28;20092;-68
2022/10/10 05:59:56;;;;;;;9.77;5.10;;;10.00;99.90;;;;;;5015165;28;20536;-69
2022/10/10 06:02:23;;;;;;;8.90;4.47;;;10.10;99.90;;;;;;5015527;28;20127;-68
2022/10/10 06:04:50;;;;;;;9.43;5.22;;;10.20;99.90;;;;;;5013991;28;20063;-68
2022/10/10 06:07:17;;;;;;;8.57;4.60;;;10.20;99.90;;;;;;5028150;28;20038;-68
2022/10/10 06:09:45;;;;;;;8.88;5.45;;;10.30;99.90;;;;;;5026521;28;20049;-68
2022/10/10 06:12:12;;;;;;;9.02;5.18;;;10.30;99.90;;;;;;5023377;28;20292;-68
2022/10/10 06:14:40;;;;;;;10.07;5.30;;;10.20;99.90;;;;;;5023560;28;20052;-68
2022/10/10 06:17:07;;;;;;;10.80;5.07;;;10.20;99.90;;;;;;5026746;28;20049;-68
2022/10/10 06:19:35;;;;;;;6.78;4.65;;;10.30;99.90;;;;;;5026358;28;20487;-68
2022/10/10 06:22:02;;;;;;;7.93;4.88;;;10.30;99.90;;;;;;5027032;28;20041;-68
2022/10/10 06:24:29;;;;;;;8.15;4.82;;;10.30;99.90;;;;;;5025039;28;20128;-69
2022/10/10 06:26:57;;;;;;;10.63;5.55;;;10.40;99.90;;;;;;4988788;28;20483;-68
2022/10/10 06:29:24;;;;;;;8.98;4.97;;;10.30;99.90;;;;;;5024205;28;20042;-68
2022/10/10 06:31:51;;;;;;;10.02;5.05;;;10.40;99.90;;;;;;5024312;28;20116;-68
2022/10/10 06:34:19;;;;;;;9.25;5.25;;;10.40;99.90;;;;;;5024525;28;20060;-68
2022/10/10 06:36:49;;;;;;;14.35;5.95;;;10.40;99.90;;;;;;5010324;28;20050;-68
2022/10/10 06:39:17;;;;;;;9.45;5.22;;;10.40;99.90;;;;;;5028436;28;20049;-68
2022/10/10 06:41:44;;;;;;;10.15;5.78;;;10.40;99.90;;;;;;5029142;28;20049;-68
2022/10/10 06:44:11;;;;;;;7.45;5.30;;;10.50;99.90;;;;;;5026518;28;20065;-68
2022/10/10 06:46:39;;;;;;;11.55;5.50;;;10.50;99.90;;;;;;5026129;28;20577;-68
2022/10/10 06:49:06;;;;;;;9.50;5.28;;;10.50;99.90;;;;;;5039482;28;20083;-68
2022/10/10 06:51:34;;;;;;;9.68;5.50;;;10.50;99.90;;;;;;5020979;28;20096;-68
2022/10/10 06:54:01;;;;;;;8.35;5.18;;;10.50;99.90;;;;;;5014086;28;20064;-68
2022/10/10 06:56:28;;;;;;;8.57;4.97;;;10.60;99.90;;;;;;5022751;28;20549;-68
2022/10/10 06:58:55;;;;;;;13.57;5.43;;;10.60;99.90;;;;;;5010624;28;20062;-68
2022/10/10 07:01:24;;;;;;;10.68;5.28;;;10.70;99.90;;;;;;5047146;28;20388;-68
2022/10/10 07:03:52;;;;;;;10.52;5.53;;;10.80;99.90;;;;;;5014729;28;20477;-68
2022/10/10 07:06:19;;;;;;;8.73;5.38;;;10.80;99.90;;;;;;5014874;28;20050;-68
2022/10/10 07:08:47;;;;;;;8.27;4.95;;;10.90;99.90;;;;;;5011595;28;20053;-68
2022/10/10 07:11:14;;;;;;;11.00;5.90;;;10.90;99.90;;;;;;5022552;28;20184;-68
2022/10/10 07:13:41;;;;;;;9.07;5.20;;;11.00;99.90;;;;;;5022318;28;20041;-68
2022/10/10 07:16:10;;;;;;;13.93;5.97;;;11.00;99.90;;;;;;5016399;28;20049;-68
2022/10/10 07:18:37;;;;;;;8.52;5.38;;;11.10;99.90;;;;;;5020933;28;20045;-67
2022/10/10 07:21:05;;;;;;;11.30;5.40;;;11.20;99.90;;;;;;5020318;28;20046;-68
2022/10/10 07:23:32;;;;;;;12.07;6.05;;;11.30;99.90;;;;;;5026103;28;20133;-69
2022/10/10 07:26:01;;;;;;;10.02;5.47;;;11.30;99.90;;;;;;5014166;28;20064;-68
2022/10/10 07:28:29;;;;;;;7.25;5.10;;;11.40;99.90;;;;;;5010023;28;20060;-70
2022/10/10 07:31:03;;;;;;;9.30;5.15;;;11.40;99.90;;;;;;5045332;28;20053;-68
2022/10/10 07:33:38;;;;;;;13.27;7.20;;;11.50;99.90;;;;;;5027961;28;20048;-70
2022/10/10 07:36:06;;;;;;;8.63;5.85;;;11.50;99.90;;;;;;5014213;28;20046;-68
2022/10/10 07:38:35;;;;;;;9.88;6.28;;;11.60;99.90;;;;;;5011907;28;20408;-68
2022/10/10 07:41:12;;;;;;;11.82;6.25;;;11.70;99.90;;;;;;5017756;28;20045;-69
2022/10/10 07:43:39;;;;;;;17.35;7.50;;;11.90;99.90;;;;;;5024478;28;20045;-69
2022/10/10 07:46:17;;;;;;;12.07;6.50;;;12.00;99.90;;;;;;5015869;28;20144;-69
2022/10/10 07:48:44;;;;;;;12.25;6.90;;;12.00;99.90;;;;;;5026297;28;20447;-68
2022/10/10 07:51:12;;;;;;;14.50;7.63;;;12.20;99.90;;;;;;5014777;28;20491;-68
2022/10/10 07:53:40;;;;;;;16.08;7.18;;;12.30;99.90;;;;;;4999317;28;20057;-68
2022/10/10 07:56:08;;;;;;;10.85;7.55;;;12.30;99.90;;;;;;5018181;28;20053;-68
2022/10/10 07:58:36;;;;;;;13.18;6.95;;;12.40;99.90;;;;;;5028652;28;20048;-68
2022/10/10 08:01:06;;;;;;;10.55;7.30;;;12.50;99.90;;;;;;5020414;28;20037;-68
2022/10/10 08:03:33;;;;;;;11.15;6.70;;;12.50;99.90;;;;;;5027499;28;20411;-68
2022/10/10 08:06:06;;;;;;;9.45;7.18;;;12.70;99.90;;;;;;5014909;28;20037;-68
2022/10/10 08:08:35;;;;;;;10.80;7.40;;;12.70;99.90;;;;;;5019078;28;20049;-69
2022/10/10 08:11:17;;;;;;;15.20;7.97;;;12.70;99.90;;;;;;5011856;28;20058;-68
2022/10/10 08:13:45;;;;;;;11.10;7.68;;;12.80;99.90;;;;;;5021600;28;20389;-69
2022/10/10 08:16:12;;;;;;;13.32;7.53;;;12.90;99.90;;;;;;5017149;28;20045;-68
2022/10/10 08:18:39;;;;;;;11.93;7.68;;;12.80;99.90;;;;;;5013159;28;20044;-69
2022/10/10 08:21:10;;;;;;;12.52;7.68;;;12.80;99.90;;;;;;5021447;28;20054;-68
2022/10/10 08:23:38;;;;;;;16.38;7.75;;;12.80;99.90;;;;;;5013172;28;20041;-68
2022/10/10 08:26:07;;;;;;;12.57;7.72;;;12.90;99.90;;;;;;5016526;28;20034;-69
2022/10/10 08:28:35;;;;;;;13.20;8.52;;;13.00;99.90;;;;;;5023875;28;20034;-69
2022/10/10 08:31:14;;;;;;;12.63;8.48;;;13.10;99.90;;;;;;5017987;28;20104;-68
2022/10/10 08:33:44;;;;;;;14.20;7.70;;;13.30;99.90;;;;;;5023668;28;20499;-68
2022/10/10 08:36:20;;;;;;;13.90;8.13;;;13.40;99.90;;;;;;5017955;28;20601;-68
2022/10/10 08:38:48;;;;;;;15.07;8.70;;;13.70;99.90;;;;;;5016353;28;20458;-68
2022/10/10 08:41:38;;;;;;;13.00;8.35;;;13.90;99.90;;;;;;5023597;28;20136;-69
2022/10/10 08:44:33;;;;;;;12.98;8.73;;;14.20;99.90;;;;;;5025063;28;20042;-69
2022/10/10 08:47:14;;;;;;;12.13;8.30;;;14.40;99.90;;;;;;5007464;28;20042;-69
2022/10/10 08:49:47;;;;;;;15.35;8.75;;;14.40;99.90;;;;;;5017672;28;20133;-68
2022/10/10 08:52:30;;;;;;;15.32;8.35;;;14.70;99.90;;;;;;5026428;28;20046;-68
2022/10/10 08:55:01;;;;;;;14.85;8.68;;;14.90;99.90;;;;;;5020775;28;20423;-69
2022/10/10 08:58:01;;;;;;;13.13;8.75;;;15.20;99.90;;;;;;5011787;28;20476;-69
2022/10/10 09:00:33;;;;;;;13.65;8.40;;;15.40;99.90;;;;;;4983330;28;20068;-68
2022/10/10 09:03:00;;;;;;;18.23;8.70;;;15.50;99.90;;;;;;5006329;28;20680;-69
2022/10/10 09:05:40;;;;;;;15.98;8.25;;;15.60;99.90;;;;;;5018951;28;20049;-68
2022/10/10 09:08:32;;;;;;;13.82;8.52;;;15.80;99.90;;;;;;5008266;28;20057;-68
2022/10/10 09:11:40;;;;;;;14.77;8.77;;;16.00;99.90;;;;;;5023599;28;20535;-68
2022/10/10 09:14:32;;;;;;;13.02;8.15;;;16.30;99.90;;;;;;4998053;28;20050;-68
2022/10/10 09:17:17;;;;;;;14.35;8.30;;;16.50;99.90;;;;;;5007070;28;20041;-68
2022/10/10 09:20:06;;;;;;;14.00;9.10;;;16.50;99.90;;;;;;5019553;28;20132;-68
2022/10/10 09:23:21;;;;;;;14.38;8.65;;;16.60;99.90;;;;;;5022550;28;20401;-68
2022/10/10 09:26:00;;;;;;;15.02;8.30;;;17.00;99.90;;;;;;4911409;28;20047;-68
2022/10/10 09:28:43;;;;;;;13.75;8.82;;;17.10;99.90;;;;;;4948943;28;20130;-70
2022/10/10 09:31:18;;;;;;;10.00;8.52;;;17.30;99.90;;;;;;4947620;28;20039;-70
2022/10/10 09:34:04;;;;;;;10.88;7.90;;;17.10;99.90;;;;;;4946368;29;20051;-69
2022/10/10 09:36:35;;;;;;;10.52;7.97;;;17.10;99.90;;;;;;4947460;28;20438;-69
2022/10/10 09:39:22;;;;;;;14.15;8.52;;;17.20;99.90;;;;;;4930407;29;20047;-69
2022/10/10 09:41:59;;;;;;;11.63;8.00;;;17.60;99.90;;;;;;4924607;29;20074;-70
2022/10/10 09:44:27;;;;;;;14.82;8.75;;;17.80;99.90;;;;;;4948090;28;20058;-69
2022/10/10 09:46:55;;;;;;;11.80;8.43;;;18.20;99.90;;;;;;4943656;28;20414;-69
2022/10/10 09:49:22;;;;;;;13.10;9.32;;;18.30;99.90;;;;;;4934205;28;20051;-68
2022/10/10 09:51:49;;;;;;;11.27;8.95;;;18.20;99.90;;;;;;4931418;29;20586;-68
2022/10/10 09:54:18;;;;;;;13.82;8.57;;;18.50;99.90;;;;;;4941136;28;20628;-68
2022/10/10 09:56:50;;;;;;;12.48;8.93;;;18.80;99.90;;;;;;4948880;29;20062;-69
2022/10/10 09:59:37;;;;;;;;;;;18.80;99.90;;;;;;4969511;28;20050;-68
2022/10/10 10:02:20;;;;;;;12.27;8.93;;;18.70;99.90;;;;;;5027817;28;19921;-68
2022/10/10 10:04:48;;;;;;;12.73;9.27;;;18.30;99.90;;;;;;5003454;28;20141;-69
2022/10/10 10:07:31;;;;;;;14.00;10.07;;;18.00;99.90;;;;;;5025694;28;20133;-69
2022/10/10 10:10:16;;;;;;;16.00;9.80;;;17.90;99.90;;;;;;5017650;28;20588;-69
2022/10/10 10:12:44;;;;;;;13.18;9.45;;;18.00;99.90;;;;;;5029022;28;20079;-67
2022/10/10 10:15:23;;;;;;;14.40;9.20;;;18.10;99.90;;;;;;5029456;28;20068;-69
2022/10/10 10:18:20;;;;;;;15.25;10.02;;;18.30;99.90;;;;;;5028772;28;20052;-67
2022/10/10 10:20:54;;;;;;;13.80;10.15;;;18.10;99.90;;;;;;5028491;28;20135;-70
2022/10/10 10:23:33;;;;;;;12.23;9.55;;;18.00;99.90;;;;;;5029231;28;20068;-68
2022/10/10 10:26:05;;;;;;;12.32;9.60;;;18.30;99.90;;;;;;5030108;28;20511;-70
2022/10/10 10:28:43;;;;;;;17.88;9.70;;;18.60;99.90;;;;;;5028413;28;20053;-67
2022/10/10 10:31:34;;;;;;;12.07;9.10;;;19.00;99.90;;;;;;5027779;28;20411;-68
2022/10/10 10:34:10;;;;;;;13.10;10.02;;;19.30;99.90;;;;;;5026532;28;20117;-67
2022/10/10 10:36:45;;;;;;;16.33;9.60;;;19.30;99.90;;;;;;5016318;28;20041;-68
2022/10/10 10:39:24;;;;;;;13.25;9.38;;;19.10;99.90;;;;;;5060743;28;20444;-67
2022/10/10 10:42:18;;;;;;;18.23;10.18;;;19.00;99.90;;;;;;5027098;28;20562;-67
2022/10/10 10:45:08;;;;;;;13.95;8.85;;;19.00;99.90;;;;;;5018644;28;20476;-67
2022/10/10 10:47:45;;;;;;;13.82;9.18;;;19.20;99.90;;;;;;5027266;28;20431;-68
2022/10/10 10:50:25;;;;;;;12.88;9.65;;;19.40;99.90;;;;;;5026399;28;20041;-68
2022/10/10 10:53:23;;;;;;;12.23;8.95;;;19.80;99.90;;;;;;4999374;28;20512;-68
2022/10/10 10:56:11;;;;;;;11.55;8.98;;;19.80;99.90;;;;;;5026683;28;20521;-68
2022/10/10 10:59:04;;;;;;;9.88;8.60;;;20.20;99.90;;;;;;5030836;28;20062;-69
2022/10/10 11:02:00;;;;;;;10.43;9.25;;;20.80;99.90;;;;;;5029848;28;20061;-68
2022/10/10 11:04:47;;;;;;;12.32;8.38;;;21.20;99.90;;;;;;5061462;28;20091;-68
2022/10/10 11:08:17;;;;;;;11.15;8.27;;;21.40;99.90;;;;;;5031047;28;20439;-68
2022/10/10 11:11:25;;;;;;;11.85;8.63;;;21.20;99.90;;;;;;5034882;28;20041;-70
2022/10/10 11:14:20;;;;;;;10.85;8.15;;;20.90;99.90;;;;;;5028183;28;20051;-71
2022/10/10 11:16:56;;;;;;;12.38;8.65;;;20.60;99.90;;;;;;5021609;28;20158;-70
2022/10/10 11:19:28;;;;;;;12.43;8.90;;;20.30;99.90;;;;;;5030985;28;20443;-69
2022/10/10 11:22:07;;;;;;;11.77;9.00;;;19.90;99.90;;;;;;5030067;28;20038;-72
2022/10/10 11:24:37;;;;;;;15.88;8.80;;;19.70;99.90;;;;;;5028303;28;20080;-71
2022/10/10 11:27:29;;;;;;;13.77;9.50;;;19.60;99.90;;;;;;5021125;28;20068;-70
2022/10/10 11:30:04;;;;;;;12.63;8.70;;;19.50;99.90;;;;;;5022443;28;20084;-71
2022/10/10 11:32:46;;;;;;;13.50;8.18;;;19.30;99.90;;;;;;5022821;28;20124;-71
2022/10/10 11:35:24;;;;;;;12.35;8.30;;;19.20;99.90;;;;;;5026539;28;20488;-72
2022/10/10 11:38:01;;;;;;;11.15;8.07;;;19.20;99.90;;;;;;5026976;28;20045;-72
2022/10/10 11:40:41;;;;;;;10.77;8.02;;;19.20;99.90;;;;;;5018477;28;20133;-72
2022/10/10 11:43:17;;;;;;;12.68;9.00;;;19.40;99.90;;;;;;5031670;28;20147;-69
2022/10/10 11:45:47;;;;;;;11.63;8.70;;;19.80;99.90;;;;;;5031063;28;20114;-72
2022/10/10 11:48:30;;;;;;;12.43;8.00;;;20.00;99.90;;;;;;5016615;28;20060;-70
2022/10/10 11:51:14;;;;;;;10.10;7.78;;;20.30;99.90;;;;;;5028405;28;20064;-70
2022/10/10 11:53:45;;;;;;;10.75;7.90;;;20.40;99.90;;;;;;5030341;28;20052;-70
2022/10/10 11:56:33;;;;;;;12.13;8.27;;;20.70;99.90;;;;;;5023593;28;20129;-70
2022/10/10 11:59:14;;;;;;;11.13;7.95;;;20.70;99.90;;;;;;5011522;28;20453;-70
2022/10/10 12:01:47;;;;;;;14.55;7.80;;;20.90;99.90;;;;;;5032360;28;20393;-70
2022/10/10 12:04:15;;;;;;;11.40;8.32;;;20.80;99.90;;;;;;5031653;28;20376;-70
2022/10/10 12:07:01;;;;;;;9.50;7.82;;;20.80;99.90;;;;;;5013709;28;20435;-70
2022/10/10 12:09:33;;;;;;;10.40;8.50;;;20.90;99.90;;;;;;5032723;28;20059;-70
2022/10/10 12:12:10;;;;;;;12.52;7.72;;;20.70;99.90;;;;;;5021844;28;20484;-70
2022/10/10 12:14:43;;;;;;;11.55;8.15;;;20.80;99.90;;;;;;5031526;28;20042;-70
2022/10/10 12:17:24;;;;;;;11.82;8.32;;;20.70;99.90;;;;;;5026983;28;20045;-70
2022/10/10 12:19:51;;;;;;;9.75;7.88;;;20.60;99.90;;;;;;5017215;28;20384;-71
2022/10/10 12:22:28;;;;;;;11.02;8.77;;;21.00;99.90;;;;;;5016253;28;20045;-71
2022/10/10 12:25:34;;;;;;;11.52;8.23;;;20.90;99.90;;;;;;5031649;28;20403;-71
2022/10/10 12:28:27;;;;;;;10.38;7.82;;;20.90;99.90;;;;;;5027275;28;20042;-71
2022/10/10 12:30:54;;;;;;;13.32;8.50;;;21.70;99.90;;;;;;5014621;28;20056;-70
2022/10/10 12:33:27;;;;;;;11.00;9.15;;;22.70;99.90;;;;;;5030061;28;20052;-71
2022/10/10 12:35:55;;;;;;;14.30;8.70;;;23.90;99.90;;;;;;5012731;28;20156;-71
2022/10/10 12:38:24;;;;;;;13.55;8.73;;;25.40;99.90;;;;;;5014828;28;20133;-71
2022/10/10 12:41:13;;;;;;;10.77;8.20;;;26.90;99.90;;;;;;5016395;28;20049;-72
2022/10/10 12:44:18;;;;;;;10.40;8.10;;;27.20;99.90;;;;;;5021948;28;20046;-71
2022/10/10 12:46:49;;;;;;;12.00;8.98;;;29.40;99.90;;;;;;5020784;28;20053;-71
2022/10/10 12:49:24;;;;;;;13.03;8.53;;;28.50;99.90;;;;;;5021556;28;20099;-70
2022/10/10 12:52:12;;;;;;;11.98;8.57;;;27.30;99.90;;;;;;5028744;28;20565;-71
2022/10/10 12:54:43;;;;;;;13.73;9.88;;;25.90;99.90;;;;;;5027625;28;20530;-71
2022/10/10 12:57:10;;;;;;;10.18;8.73;;;25.30;99.90;;;;;;5024874;28;20068;-71
2022/10/10 12:59:38;;;;;;;11.18;9.15;;;24.30;99.90;;;;;;5026386;28;20100;-71
2022/10/10 13:02:14;;;;;;;13.10;9.40;;;23.70;99.90;;;;;;5058107;28;20518;-72
2022/10/10 13:04:44;;;;;;;18.40;9.35;;;23.40;99.90;;;;;;5031677;28;20049;-72
2022/10/10 13:07:18;;;;;;;12.30;9.13;;;22.90;99.90;;;;;;5023654;28;20068;-73
2022/10/10 13:09:48;;;;;;;12.32;9.25;;;22.80;99.90;;;;;;5014224;28;20515;-72
2022/10/10 13:12:29;;;;;;;12.75;9.20;;;22.40;99.90;;;;;;5030234;28;20053;-72
2022/10/10 13:14:57;;;;;;;13.02;9.10;;;22.00;99.90;;;;;;5022558;28;20065;-72
2022/10/10 13:17:26;;;;;;;13.95;9.15;;;21.80;99.90;;;;;;5016900;28;20129;-72